Time;durP1;ratioP1;P1;durP2;ratioP2;P2;SDS_P1;SDS_P2;PMS_P1;PMS_P2;Temp;Humidity;BMP_temperature;BMP_pressure;BME280_temperature;BME280_humidity;BME280_pressure;Samples;Min_cycle;Max_cycle;Signal;HPM_P1;HPM_P2
2021/11/11 00:01:45;;;;;;;3.08;2.08;;;;;;;-145.06;100.00;60892.56;4872917;28;20032;-88
2021/11/11 00:04:25;;;;;;;3.65;2.10;;;;;;;-145.06;100.00;60892.56;4873024;28;20064;-90
2021/11/11 00:07:04;;;;;;;3.42;2.30;;;;;;;-145.06;100.00;60892.56;4866724;28;20475;-89
2021/11/11 00:09:43;;;;;;;;;;;;;;;-145.06;100.00;60892.56;4869541;28;20036;-88
2021/11/11 00:12:22;;;;;;;2.70;1.80;;;;;;;2.80;100.00;60892.56;4876654;28;19908;-88
2021/11/11 00:15:04;;;;;;;2.53;1.85;;;;;;;2.74;100.00;60892.56;4873690;28;20029;-90
2021/11/11 00:17:44;;;;;;;2.70;1.73;;;;;;;2.77;100.00;60892.56;4872938;28;20022;-89
2021/11/11 00:20:27;;;;;;;3.50;1.80;;;;;;;2.73;100.00;60892.56;4872495;28;20367;-88
2021/11/11 00:23:07;;;;;;;2.55;1.60;;;;;;;-145.06;100.00;60892.56;4872454;28;20040;-88
2021/11/11 00:25:46;;;;;;;3.25;2.03;;;;;;;-145.06;100.00;60892.56;4874957;28;20364;-90
2021/11/11 00:28:25;;;;;;;2.67;1.83;;;;;;;-145.06;100.00;60892.56;4875730;28;20029;-88
2021/11/11 00:31:04;;;;;;;3.20;2.03;;;;;;;-145.06;100.00;60892.56;4877408;28;20048;-89
2021/11/11 00:33:43;;;;;;;3.17;1.73;;;;;;;-145.06;100.00;60892.56;4875189;28;20280;-89
2021/11/11 00:36:21;;;;;;;2.28;1.52;;;;;;;-145.06;100.00;60892.56;4873268;28;20272;-89
2021/11/11 00:39:01;;;;;;;3.08;1.45;;;;;;;-145.06;100.00;60892.56;4864843;28;20025;-88
2021/11/11 00:41:40;;;;;;;2.45;1.75;;;;;;;-145.06;100.00;60892.56;4869125;28;20045;-89
2021/11/11 00:44:19;;;;;;;2.28;1.77;;;;;;;2.89;100.00;60892.56;4875245;28;20032;-89
2021/11/11 00:46:58;;;;;;;3.33;1.67;;;;;;;-145.06;100.00;60892.56;4872750;28;20462;-88
2021/11/11 00:49:38;;;;;;;3.55;1.67;;;;;;;-145.06;100.00;60892.56;4864514;28;20594;-89
2021/11/11 00:52:17;;;;;;;2.67;1.90;;;;;;;-145.06;100.00;60892.56;4874477;28;20041;-89
2021/11/11 00:54:56;;;;;;;2.40;1.73;;;;;;;-145.06;100.00;60892.56;4865981;28;20021;-90
2021/11/11 00:57:36;;;;;;;3.40;2.08;;;;;;;2.89;100.00;60892.56;4870338;28;20101;-89
2021/11/11 01:00:17;;;;;;;;;;;;;;;-145.06;100.00;60892.56;4877074;28;20427;-88
2021/11/11 01:02:57;;;;;;;2.03;1.30;;;;;;;-145.06;100.00;60892.56;4872196;28;19909;-88
2021/11/11 01:05:37;;;;;;;2.25;1.42;;;;;;;-145.06;100.00;60892.56;4866864;28;20036;-89
2021/11/11 01:08:16;;;;;;;;;;;;;;;-145.06;100.00;60892.56;4864693;28;20025;-90
2021/11/11 01:10:55;;;;;;;1.50;1.35;;;;;;;-145.06;100.00;60892.56;4871714;28;19920;-89
2021/11/11 01:13:35;;;;;;;2.53;1.50;;;;;;;-145.06;100.00;60892.56;4874567;28;20028;-89
2021/11/11 01:16:15;;;;;;;2.30;1.50;;;;;;;-145.06;100.00;60892.56;4876409;28;20025;-90
2021/11/11 01:18:54;;;;;;;2.83;1.67;;;;;;;-145.06;100.00;60892.56;4867094;28;20032;-89
2021/11/11 01:21:32;;;;;;;2.97;1.48;;;;;;;-145.06;100.00;60892.56;4874997;28;20752;-89
2021/11/11 01:24:11;;;;;;;2.63;1.50;;;;;;;-145.06;100.00;60892.56;4862405;28;20359;-89
2021/11/11 01:26:51;;;;;;;1.67;1.33;;;;;;;-145.06;100.00;60892.56;4869490;28;20025;-87
2021/11/11 01:29:30;;;;;;;3.78;1.58;;;;;;;10.68;100.00;60892.56;4875606;28;20652;-89
2021/11/11 01:32:09;;;;;;;2.42;1.80;;;;;;;-145.06;100.00;60892.56;4865398;28;20037;-89
2021/11/11 01:34:48;;;;;;;3.80;1.60;;;;;;;-145.06;100.00;60892.56;4861422;28;20029;-89
2021/11/11 01:37:27;;;;;;;3.35;1.90;;;;;;;-145.06;100.00;60892.56;4857336;28;20280;-89
2021/11/11 01:40:08;;;;;;;2.40;1.52;;;;;;;-145.06;100.00;60892.56;4872694;28;20237;-89
2021/11/11 01:42:59;;;;;;;2.13;1.40;;;;;;;-145.06;100.00;60892.56;4875056;28;20388;-88
2021/11/11 01:45:41;;;;;;;2.47;1.60;;;;;;;-145.06;100.00;60892.56;4875652;28;20029;-89
2021/11/11 01:48:20;;;;;;;3.22;1.67;;;;;;;-145.06;100.00;60892.56;4871961;28;20032;-89
2021/11/11 01:50:59;;;;;;;2.47;1.47;;;;;;;-145.06;100.00;60892.56;4872250;28;20107;-89
2021/11/11 01:53:39;;;;;;;2.10;1.65;;;;;;;-145.06;100.00;60892.56;4862927;28;20021;-89
2021/11/11 01:56:20;;;;;;;2.40;1.77;;;;;;;-145.06;100.00;60892.56;4875947;28;20466;-88
2021/11/11 01:58:59;;;;;;;2.58;1.90;;;;;;;-145.06;100.00;60892.56;4869121;28;20368;-88
2021/11/11 02:01:39;;;;;;;2.90;1.88;;;;;;;-145.06;100.00;60892.56;4868290;28;20371;-88
2021/11/11 02:04:18;;;;;;;2.40;1.70;;;;;;;-145.06;100.00;60892.56;4875745;28;20443;-88
2021/11/11 02:06:57;;;;;;;2.70;1.70;;;;;;;-145.06;100.00;60892.56;4875169;28;20028;-89
2021/11/11 02:09:36;;;;;;;3.13;1.63;;;;;;;21.08;100.00;60892.56;4869859;28;20407;-89
2021/11/11 02:12:15;;;;;;;2.95;1.83;;;;;;;-145.06;100.00;60892.56;4875724;28;20123;-89
2021/11/11 02:14:54;;;;;;;2.72;1.70;;;;;;;-145.06;100.00;60892.56;4867039;28;20033;-89
2021/11/11 02:17:33;;;;;;;2.25;1.65;;;;;;;-145.06;100.00;60892.56;4874155;28;20037;-90
2021/11/11 02:20:16;;;;;;;3.63;2.05;;;;;;;-145.06;100.00;60892.56;4865619;28;20025;-89
2021/11/11 02:22:57;;;;;;;5.05;1.92;;;;;;;-145.06;100.00;60892.56;4874251;28;20048;-90
2021/11/11 02:25:37;;;;;;;3.22;2.00;;;;;;;-145.06;100.00;60892.56;4865856;28;20025;-89
2021/11/11 02:28:19;;;;;;;3.28;1.60;;;;;;;-145.06;100.00;60892.56;4871812;28;20037;-89
2021/11/11 02:30:58;;;;;;;2.95;1.83;;;;;;;-145.06;100.00;60892.56;4876503;28;20033;-88
2021/11/11 02:33:37;;;;;;;2.58;1.40;;;;;;;-145.06;100.00;60892.56;4878154;28;20033;-88
2021/11/11 02:36:16;;;;;;;2.33;1.67;;;;;;;-145.06;100.00;60892.56;4869741;28;20050;-89
2021/11/11 02:38:57;;;;;;;3.40;1.67;;;;;;;-145.06;100.00;60892.56;4877052;28;20108;-88
2021/11/11 02:41:36;;;;;;;3.50;2.10;;;;;;;-145.06;100.00;60892.56;4877596;28;20037;-88
2021/11/11 02:44:16;;;;;;;3.23;1.87;;;;;;;-145.06;100.00;60892.56;4877089;28;20112;-88
2021/11/11 02:46:56;;;;;;;3.30;1.95;;;;;;;-145.06;100.00;60892.56;4878331;28;20029;-88
2021/11/11 02:49:36;;;;;;;3.47;1.88;;;;;;;-145.06;100.00;60892.56;4871846;28;20033;-89
2021/11/11 02:52:16;;;;;;;2.47;1.67;;;;;;;-145.06;100.00;60892.56;4882349;28;20033;-89
2021/11/11 02:54:56;;;;;;;2.10;1.40;;;;;;;-145.06;100.00;60892.56;4880130;28;20040;-89
2021/11/11 02:57:38;;;;;;;2.50;1.50;;;;;;;-145.06;100.00;60892.56;4881271;28;20021;-89
2021/11/11 03:00:26;;;;;;;2.20;1.48;;;;;;;-145.06;100.00;60892.56;4873296;28;20037;-89
2021/11/11 03:03:05;;;;;;;2.20;1.50;;;;;;;-145.06;100.00;60892.56;4869163;28;20061;-89
2021/11/11 03:05:45;;;;;;;1.73;1.50;;;;;;;-145.06;100.00;60892.56;4874957;28;20029;-90
2021/11/11 03:08:24;;;;;;;3.22;1.50;;;;;;;-145.06;100.00;60892.56;4871056;28;20069;-89
2021/11/11 03:11:05;;;;;;;1.92;1.38;;;;;;;-145.06;100.00;60892.56;4872665;28;20372;-89
2021/11/11 03:13:43;;;;;;;2.25;1.42;;;;;;;-145.06;100.00;60892.56;4873400;28;20383;-88
2021/11/11 03:16:23;;;;;;;2.88;1.58;;;;;;;-145.06;100.00;60892.56;4871516;28;20108;-89
2021/11/11 03:19:02;;;;;;;2.75;1.80;;;;;;;-145.06;100.00;60892.56;4866809;28;20041;-88
2021/11/11 03:21:44;;;;;;;2.97;1.40;;;;;;;-145.06;100.00;60892.56;4866613;28;20032;-89
2021/11/11 03:24:23;;;;;;;2.90;1.80;;;;;;;-145.06;100.00;60892.56;4875827;28;20424;-90
2021/11/11 03:27:03;;;;;;;1.95;1.40;;;;;;;-145.06;100.00;60892.56;4866869;28;20049;-89
2021/11/11 03:29:42;;;;;;;;;;;;;;;-145.06;100.00;60892.56;4873912;28;20036;-89
2021/11/11 03:32:21;;;;;;;2.35;1.40;;;;;;;-145.06;100.00;60892.56;4868328;28;19913;-89
2021/11/11 03:35:00;;;;;;;3.33;1.92;;;;;;;-145.06;100.00;60892.56;4872188;28;20028;-89
2021/11/11 03:37:41;;;;;;;2.10;1.40;;;;;;;-145.06;100.00;60892.56;4871619;28;20136;-88
2021/11/11 03:40:26;;;;;;;2.85;1.60;;;;;;;-145.06;100.00;60892.56;4861568;28;20116;-89
2021/11/11 03:43:06;;;;;;;2.08;1.33;;;;;;;-145.06;100.00;60892.56;4868585;28;20040;-89
2021/11/11 03:45:45;;;;;;;2.38;1.58;;;;;;;21.08;100.00;60892.56;4877377;28;20041;-88
2021/11/11 03:48:24;;;;;;;2.03;1.40;;;;;;;-145.06;100.00;60892.56;4877181;28;20033;-88
2021/11/11 03:51:03;;;;;;;2.20;1.30;;;;;;;-145.06;100.00;60892.56;4877190;28;20025;-88
2021/11/11 03:53:44;;;;;;;2.10;1.70;;;;;;;-145.06;100.00;60892.56;4875544;28;20029;-89
2021/11/11 03:56:23;;;;;;;1.77;1.38;;;;;;;-145.06;100.00;60892.56;4875399;28;20116;-88
2021/11/11 03:59:03;;;;;;;2.03;1.40;;;;;;;-145.06;100.00;60892.56;4877824;28;20032;-89
2021/11/11 04:01:43;;;;;;;1.95;1.40;;;;;;;-145.06;100.00;60892.56;4870581;28;20056;-88
2021/11/11 04:04:22;;;;;;;2.33;1.60;;;;;;;-145.06;100.00;60892.56;4876140;28;20483;-89
2021/11/11 04:07:02;;;;;;;2.97;1.52;;;;;;;-145.06;100.00;60892.56;4869097;28;20605;-89
2021/11/11 04:09:40;;;;;;;2.65;1.88;;;;;;;-145.06;100.00;60892.56;4867139;28;20383;-88
2021/11/11 04:12:19;;;;;;;2.85;1.88;;;;;;;-145.06;100.00;60892.56;4870017;28;20029;-90
2021/11/11 04:14:58;;;;;;;2.43;1.57;;;;;;;-145.06;100.00;60892.56;4868928;28;20510;-88
2021/11/11 04:17:37;;;;;;;2.67;1.80;;;;;;;-145.06;100.00;60892.56;4860715;28;20033;-89
2021/11/11 04:20:16;;;;;;;1.83;1.50;;;;;;;-145.06;100.00;60892.56;4877768;28;20036;-88
2021/11/11 04:22:55;;;;;;;2.13;1.43;;;;;;;-145.06;100.00;60892.56;4860136;28;21089;-88
2021/11/11 04:26:21;;;;;;;2.63;1.70;;;;;;;-145.06;100.00;60892.56;4873859;28;20263;-89
2021/11/11 04:28:50;;;;;;;2.95;1.98;;;;;;;-145.06;100.00;60892.56;4870213;28;20029;-89
2021/11/11 04:31:37;;;;;;;1.90;1.45;;;;;;;10.68;100.00;60892.56;4875725;28;20032;-88
2021/11/11 04:34:17;;;;;;;2.90;1.60;;;;;;;-145.06;100.00;60892.56;4872037;28;20037;-89
2021/11/11 05:06:17;;;;;;;2.03;1.27;;;;;;;-145.06;100.00;60892.56;4876746;28;20033;-89
2021/11/11 05:08:59;;;;;;;1.80;1.38;;;;;;;187.52;100.00;60892.56;4874640;28;20032;-88
2021/11/11 05:11:38;;;;;;;2.97;1.58;;;;;;;-145.06;100.00;60892.56;4866415;28;20036;-88
2021/11/11 05:14:17;;;;;;;2.38;1.67;;;;;;;-145.06;100.00;60892.56;4875362;28;20040;-88
2021/11/11 05:16:56;;;;;;;2.63;1.43;;;;;;;-145.06;100.00;60892.56;4875225;28;20037;-88
2021/11/11 05:19:35;;;;;;;1.55;1.23;;;;;;;-145.06;100.00;60892.56;4866357;28;20120;-88
2021/11/11 05:22:14;;;;;;;1.98;1.27;;;;;;;-145.06;100.00;60892.56;4871024;28;20536;-88
2021/11/11 05:24:53;;;;;;;2.40;1.60;;;;;;;-145.06;100.00;60892.56;4869453;28;20120;-89
2021/11/11 05:27:34;;;;;;;2.15;1.65;;;;;;;-145.06;100.00;60892.56;4861905;28;20112;-89
2021/11/11 05:30:16;;;;;;;2.05;1.40;;;;;;;-145.06;100.00;60892.56;4866412;28;20392;-89
2021/11/11 05:32:55;;;;;;;2.53;1.40;;;;;;;21.08;100.00;60892.56;4871835;28;20029;-88
2021/11/11 05:35:34;;;;;;;2.13;1.65;;;;;;;1.48;100.00;60892.56;4871910;28;20108;-88
2021/11/11 05:38:14;;;;;;;2.17;1.33;;;;;;;2.89;100.00;60892.56;4880170;28;20112;-89
2021/11/11 05:40:53;;;;;;;1.83;1.50;;;;;;;-145.06;100.00;60892.56;4871272;28;20028;-89
2021/11/11 05:43:32;;;;;;;2.95;1.67;;;;;;;-145.06;100.00;60892.56;4872282;28;20375;-89
2021/11/11 05:46:11;;;;;;;2.05;1.50;;;;;;;1.45;100.00;60892.56;4863203;28;20104;-89
2021/11/11 05:48:49;;;;;;;2.67;1.50;;;;;;;-145.06;100.00;60892.56;4867067;28;20580;-89
2021/11/11 05:51:28;;;;;;;3.03;1.60;;;;;;;-145.06;100.00;60892.56;4867300;28;20041;-89
2021/11/11 05:54:10;;;;;;;2.42;1.50;;;;;;;-145.06;100.00;60892.56;4871231;28;20033;-88
2021/11/11 05:56:49;;;;;;;3.00;1.65;;;;;;;187.52;100.00;60892.56;4869282;28;20029;-88
2021/11/11 05:59:28;;;;;;;1.80;1.40;;;;;;;-145.06;100.00;60892.56;4889116;28;20025;-89
2021/11/11 06:02:08;;;;;;;2.33;1.43;;;;;;;-145.06;100.00;60892.56;4879630;28;20362;-88
2021/11/11 06:04:47;;;;;;;1.95;1.20;;;;;;;-145.06;100.00;60892.56;4868344;28;20283;-88
2021/11/11 06:07:27;;;;;;;;;;;;;;;1.37;100.00;60892.56;4873608;28;20115;-89
2021/11/11 06:10:07;;;;;;;2.37;1.50;;;;;;;-145.06;100.00;60892.56;4879798;28;19912;-88
2021/11/11 06:12:46;;;;;;;2.38;1.27;;;;;;;-145.06;100.00;60892.56;4878374;28;20287;-89
2021/11/11 06:15:25;;;;;;;1.63;1.30;;;;;;;-145.06;100.00;60892.56;4865536;28;20401;-89
2021/11/11 06:18:04;;;;;;;1.90;1.17;;;;;;;-145.06;100.00;60892.56;4867794;28;20030;-89
2021/11/11 06:20:45;;;;;;;2.38;1.40;;;;;;;-145.06;100.00;60892.56;4868610;28;20037;-89
2021/11/11 06:23:24;;;;;;;2.35;1.48;;;;;;;-145.06;100.00;60892.56;4857499;28;20171;-88
2021/11/11 06:26:04;;;;;;;2.15;1.58;;;;;;;-145.06;100.00;60892.56;4867915;28;20521;-89
2021/11/11 06:28:43;;;;;;;;;;;;;;;-145.06;100.00;60892.56;4873584;28;20490;-89
2021/11/11 06:31:22;;;;;;;1.83;1.30;;;;;;;-145.06;100.00;60892.56;4871592;28;19956;-88
2021/11/11 06:34:02;;;;;;;2.38;1.27;;;;;;;-145.06;100.00;60892.56;4871995;28;20037;-89
2021/11/11 06:36:41;;;;;;;2.58;1.30;;;;;;;5.49;100.00;60892.56;4870842;28;20033;-90
2021/11/11 06:39:19;;;;;;;2.28;1.50;;;;;;;-145.06;100.00;60892.56;4866294;28;20029;-89
2021/11/11 06:41:58;;;;;;;1.95;1.38;;;;;;;-145.06;100.00;60892.56;4862644;28;20061;-89
2021/11/11 06:44:42;;;;;;;3.47;2.00;;;;;;;-145.06;100.00;60892.56;4865036;28;20037;-89
2021/11/11 06:47:21;;;;;;;2.50;1.75;;;;;;;1.59;100.00;60892.56;4866891;28;20300;-89
2021/11/11 06:50:00;;;;;;;2.60;1.98;;;;;;;-145.06;100.00;60892.56;4866984;28;21145;-90
2021/11/11 06:52:39;;;;;;;3.38;2.28;;;;;;;-145.06;100.00;60892.56;4873814;28;20037;-88
2021/11/11 06:55:20;;;;;;;2.53;1.92;;;;;;;-145.06;100.00;60892.56;4869774;28;20060;-89
2021/11/11 06:57:59;;;;;;;3.50;2.05;;;;;;;-145.06;100.00;60892.56;4861979;28;20064;-89
2021/11/11 07:00:39;;;;;;;4.07;2.20;;;;;;;-145.06;100.00;60892.56;4861986;28;20033;-89
2021/11/11 07:03:18;;;;;;;2.53;1.88;;;;;;;-145.06;100.00;60892.56;4866679;28;20279;-88
2021/11/11 07:05:58;;;;;;;4.35;2.60;;;;;;;-145.06;100.00;60892.56;4863486;28;20034;-88
2021/11/11 07:08:36;;;;;;;3.75;2.35;;;;;;;-145.06;100.00;60892.56;4869244;28;20037;-88
2021/11/11 07:11:15;;;;;;;6.95;2.30;;;;;;;-145.06;100.00;60892.56;4865261;28;20037;-90
2021/11/11 07:13:54;;;;;;;4.20;1.97;;;;;;;-145.06;100.00;60892.56;4861968;28;20045;-89
2021/11/11 07:16:33;;;;;;;3.97;2.50;;;;;;;-145.06;100.00;60892.56;4867505;28;20037;-89
2021/11/11 07:19:13;;;;;;;3.70;2.50;;;;;;;-145.06;100.00;60892.56;4878081;28;20040;-88
2021/11/11 07:21:52;;;;;;;5.75;2.70;;;;;;;-145.06;100.00;60892.56;4870888;28;20033;-88
2021/11/11 07:24:32;;;;;;;4.35;2.30;;;;;;;-145.06;100.00;60892.56;4869287;28;20036;-90
2021/11/11 07:27:10;;;;;;;5.03;2.67;;;;;;;-145.06;100.00;60892.56;4867020;28;20367;-89
2021/11/11 07:29:50;;;;;;;3.38;2.25;;;;;;;-145.06;100.00;60892.56;4868515;28;20633;-89
2021/11/11 07:32:29;;;;;;;3.45;2.28;;;;;;;-145.06;100.00;60892.56;4868747;28;20116;-90
2021/11/11 07:35:10;;;;;;;3.92;2.28;;;;;;;-145.06;100.00;60892.56;4870817;28;20036;-89
2021/11/11 07:37:53;;;;;;;5.07;2.30;;;;;;;-145.06;100.00;60892.56;4865639;28;20033;-90
2021/11/11 07:40:35;;;;;;;3.85;2.45;;;;;;;-145.06;100.00;60892.56;4863548;28;20029;-89
2021/11/11 07:43:15;;;;;;;4.32;2.22;;;;;;;-145.06;100.00;60892.56;4865152;28;20044;-88
2021/11/11 07:45:54;;;;;;;6.07;3.13;;;;;;;-145.06;100.00;60892.56;4865091;28;20033;-89
2021/11/11 07:48:34;;;;;;;4.03;2.50;;;;;;;-145.06;100.00;60892.56;4871258;28;20064;-88
2021/11/11 07:51:13;;;;;;;;;;;;;;;-145.06;100.00;60892.56;4869819;28;20415;-89
2021/11/11 07:53:52;;;;;;;3.25;2.28;;;;;;;-145.06;100.00;60892.56;4873452;28;19912;-89
2021/11/11 07:56:33;;;;;;;3.40;2.50;;;;;;;-145.06;100.00;60892.56;4872391;28;20033;-89
2021/11/11 07:59:14;;;;;;;4.82;2.65;;;;;;;-145.06;100.00;60892.56;4868036;28;20376;-89
2021/11/11 08:01:53;;;;;;;4.45;2.60;;;;;;;-145.06;100.00;60892.56;4864951;28;20037;-89
2021/11/11 08:04:32;;;;;;;4.43;2.65;;;;;;;-145.06;100.00;60892.56;4872979;28;20439;-89
2021/11/11 08:07:12;;;;;;;4.80;2.55;;;;;;;-145.06;100.00;60892.56;4880664;28;20028;-89
2021/11/11 08:09:51;;;;;;;;;;;;;;;-145.06;100.00;60892.56;4865897;28;20041;-89
2021/11/11 08:12:31;;;;;;;3.20;2.28;;;;;;;-145.06;100.00;60892.56;4868560;28;19909;-89
2021/11/11 08:15:11;;;;;;;;;;;;;;;-145.06;100.00;60892.56;4879069;28;20032;-90
2021/11/11 08:17:50;;;;;;;2.72;1.88;;;;;;;-145.06;100.00;60892.56;4873069;28;19916;-90
2021/11/11 08:20:29;;;;;;;4.00;2.30;;;;;;;-145.06;100.00;60892.56;4879579;28;20041;-89
2021/11/11 08:23:09;;;;;;;3.08;2.10;;;;;;;-145.06;100.00;60892.56;4866743;28;20620;-89
2021/11/11 08:25:49;;;;;;;4.95;3.00;;;;;;;-145.06;100.00;60892.56;4876002;28;20033;-90
2021/11/11 08:28:28;;;;;;;6.28;2.92;;;;;;;-145.06;100.00;60892.56;4890446;28;20033;-88
2021/11/11 08:31:07;;;;;;;4.57;2.77;;;;;;;-145.06;100.00;60892.56;4869660;28;20506;-88
2021/11/11 08:33:46;;;;;;;5.32;2.88;;;;;;;-145.06;100.00;60892.56;4869033;28;20307;-89
2021/11/11 08:36:26;;;;;;;4.90;2.65;;;;;;;-145.06;100.00;60892.56;4877451;28;20479;-88
2021/11/11 08:39:05;;;;;;;3.75;2.53;;;;;;;5.49;100.00;60892.56;4874618;28;20029;-89
2021/11/11 08:41:44;;;;;;;5.40;2.97;;;;;;;5.49;100.00;60892.56;4881648;28;20474;-89
2021/11/11 08:44:23;;;;;;;4.65;2.97;;;;;;;2.71;100.00;60892.56;4880051;28;20036;-89
2021/11/11 08:47:03;;;;;;;4.85;2.97;;;;;;;187.52;100.00;60892.56;4878503;28;20052;-89
2021/11/11 08:49:44;;;;;;;4.70;2.60;;;;;;;2.89;100.00;60892.56;4869133;28;20033;-87
2021/11/11 08:52:23;;;;;;;5.80;2.85;;;;;;;2.87;100.00;60892.56;4867871;28;20036;-88
2021/11/11 08:55:03;;;;;;;4.90;2.83;;;;;;;-145.06;100.00;60892.56;4870019;28;20029;-88
2021/11/11 08:57:43;;;;;;;5.82;2.88;;;;;;;187.52;100.00;60892.56;4864472;28;20510;-88
2021/11/11 09:00:25;;;;;;;4.20;2.35;;;;;;;-145.06;100.00;60892.56;4878038;28;20037;-87
2021/11/11 09:03:04;;;;;;;4.13;2.70;;;;;;;-145.06;100.00;60892.56;4891020;28;20024;-88
2021/11/11 09:05:45;;;;;;;3.78;2.65;;;;;;;-145.06;100.00;60892.56;4884815;28;20048;-86
2021/11/11 09:08:24;;;;;;;5.35;2.85;;;;;;;-145.06;100.00;60892.56;4883070;28;20352;-87
2021/11/11 09:11:03;;;;;;;6.57;2.90;;;;;;;-145.06;100.00;60892.56;4879828;28;20541;-87
2021/11/11 09:13:44;;;;;;;4.00;2.60;;;;;;;-145.06;100.00;60892.56;4866485;28;20033;-87
2021/11/11 09:16:25;;;;;;;5.95;3.55;;;;;;;-145.06;100.00;60892.56;4875404;28;20033;-87
2021/11/11 09:19:05;;;;;;;7.22;3.35;;;;;;;-145.06;100.00;60892.56;4869614;28;20036;-88
2021/11/11 09:21:44;;;;;;;;;;;;;;;-145.06;100.00;60892.56;4871777;28;20028;-87
2021/11/11 09:24:23;;;;;;;7.05;3.42;;;;;;;-145.06;100.00;60892.56;4873453;28;19912;-87
2021/11/11 09:27:02;;;;;;;5.82;3.20;;;;;;;-145.06;100.00;60892.56;4877793;28;20028;-88
2021/11/11 09:29:42;;;;;;;4.95;3.17;;;;;;;-145.06;100.00;60892.56;4878774;28;20032;-87
2021/11/11 09:32:21;;;;;;;6.50;3.67;;;;;;;-145.06;100.00;60892.56;4883410;28;20029;-88
2021/11/11 09:35:04;;;;;;;;;;;;;;;-145.06;100.00;60892.56;4877388;28;20688;-88
2021/11/11 09:37:43;;;;;;;5.07;2.88;;;;;;;-145.06;100.00;60892.56;4889789;28;19916;-88
2021/11/11 09:40:25;;;;;;;5.90;3.72;;;;;;;-145.06;100.00;60892.56;4875433;28;20041;-88
2021/11/11 09:43:05;;;;;;;6.07;3.70;;;;;;;-145.06;100.00;60892.56;4864164;28;20036;-87
2021/11/11 09:45:46;;;;;;;5.70;3.60;;;;;;;5.49;100.00;60892.56;4864234;28;20036;-88
2021/11/11 09:48:25;;;;;;;7.05;3.67;;;;;;;-145.06;100.00;60892.56;4865719;28;20029;-87
2021/11/11 09:51:06;;;;;;;6.55;3.75;;;;;;;-145.06;100.00;60892.56;4868038;28;20040;-88
2021/11/11 09:54:02;;;;;;;7.55;3.65;;;;;;;-145.06;100.00;60892.56;4867226;28;20041;-88
2021/11/11 09:59:43;;;;;;;4.63;3.08;;;;;;;-145.06;100.00;60892.56;4874188;28;20040;-89
2021/11/11 10:02:24;;;;;;;6.93;3.55;;;;;;;5.22;100.00;60892.56;4876166;28;20037;-88
2021/11/11 10:05:04;;;;;;;4.82;3.10;;;;;;;-145.06;100.00;60892.56;4869816;28;20044;-88
2021/11/11 10:07:44;;;;;;;5.72;3.53;;;;;;;5.48;100.00;60892.56;4872166;28;20021;-89
2021/11/11 10:10:28;;;;;;;;;;;;;;;-145.06;100.00;60892.56;4855553;28;20577;-88
2021/11/11 10:13:18;;;;;;;5.63;3.17;;;;;;;-145.06;100.00;60892.56;4856703;28;20390;-89
2021/11/11 10:16:07;;;;;;;4.88;3.30;;;;;;;-145.06;100.00;60892.56;4879148;28;20033;-89
2021/11/11 10:18:49;;;;;;;6.32;3.88;;;;;;;-145.06;100.00;60892.56;4870395;28;20033;-87
2021/11/11 10:21:45;;;;;;;5.72;3.70;;;;;;;6.50;100.00;60892.56;4875510;28;20491;-89
2021/11/11 10:27:38;;;;;;;7.72;4.70;;;;;;;-145.06;100.00;60892.56;4856222;28;20112;-89
2021/11/11 10:30:26;;;;;;;10.25;5.32;;;;;;;-145.06;100.00;60892.56;4856111;28;20033;-88
2021/11/11 10:33:05;;;;;;;7.35;4.70;;;;;;;-145.06;100.00;60892.56;4860013;28;20112;-89
2021/11/11 10:35:46;;;;;;;7.82;4.90;;;;;;;-145.06;100.00;60892.56;4874733;28;20021;-88
2021/11/11 10:38:26;;;;;;;7.70;4.63;;;;;;;-145.06;100.00;60892.56;4855567;28;20491;-87
2021/11/11 10:41:05;;;;;;;8.15;4.30;;;;;;;8.38;100.00;60892.56;4884037;28;20037;-89
2021/11/11 10:43:44;;;;;;;7.60;4.82;;;;;;;-145.06;100.00;60892.56;4873963;28;20041;-89
2021/11/11 10:46:43;;;;;;;7.13;4.43;;;;;;;-145.06;100.00;60892.56;4870186;28;20665;-88
2021/11/11 10:49:31;;;;;;;7.47;5.15;;;;;;;9.38;100.00;60892.56;4878664;28;20543;-88
2021/11/11 10:52:19;;;;;;;7.82;4.50;;;;;;;-145.06;100.00;60892.56;4876092;28;20033;-88
2021/11/11 10:55:18;;;;;;;7.68;4.43;;;;;;;-145.06;100.00;60892.56;4878049;28;20064;-89
2021/11/11 10:58:08;;;;;;;7.00;4.13;;;;;;;-145.06;100.00;60892.56;4878257;28;20495;-88
2021/11/11 11:00:49;;;;;;;9.50;5.65;;;;;;;-145.06;100.00;60892.56;4877975;28;20819;-90
2021/11/11 11:03:39;;;;;;;8.85;4.63;;;;;;;-145.06;100.00;60892.56;4877345;28;20029;-89
2021/11/11 11:06:23;;;;;;;6.10;4.45;;;;;;;-145.06;100.00;60892.56;4876399;28;20017;-89
2021/11/11 11:09:02;;;;;;;7.90;5.05;;;;;;;-145.06;100.00;60892.56;4863027;28;20372;-89
2021/11/11 11:11:43;;;;;;;7.50;4.83;;;;;;;-145.06;100.00;60892.56;4858105;28;20495;-89
2021/11/11 11:14:26;;;;;;;8.27;5.28;;;;;;;-145.06;100.00;60892.56;4879975;28;20270;-89
2021/11/11 11:17:09;;;;;;;7.82;4.55;;;;;;;-145.06;100.00;60892.56;4875389;28;20025;-88
2021/11/11 11:19:49;;;;;;;7.40;4.55;;;;;;;-145.06;100.00;60892.56;4859133;28;20033;-89
2021/11/11 11:22:29;;;;;;;9.38;5.13;;;;;;;-145.06;100.00;60892.56;4866083;28;20036;-90
2021/11/11 11:25:09;;;;;;;7.93;4.53;;;;;;;-145.06;100.00;60892.56;4868810;28;20037;-89
2021/11/11 11:27:47;;;;;;;6.23;4.17;;;;;;;-145.06;100.00;60892.56;4872909;28;20382;-89
2021/11/11 11:30:42;;;;;;;7.82;4.20;;;;;;;-145.06;100.00;60892.56;4878061;28;20033;-88
2021/11/11 11:33:35;;;;;;;6.28;4.15;;;;;;;-145.06;100.00;60892.56;4876529;28;20029;-89
2021/11/11 11:36:17;;;;;;;6.30;4.28;;;;;;;-145.06;100.00;60892.56;4867452;28;20033;-89
2021/11/11 11:38:56;;;;;;;7.55;4.20;;;;;;;12.72;100.00;60892.56;4877831;28;20037;-89
2021/11/11 11:41:42;;;;;;;7.55;4.15;;;;;;;-145.06;100.00;60892.56;4881724;28;20032;-89
2021/11/11 11:44:34;;;;;;;4.80;3.25;;;;;;;-145.06;100.00;60892.56;4894480;28;20436;-89
2021/11/11 11:47:39;;;;;;;7.63;3.88;;;;;;;-145.06;100.00;60892.56;4867089;28;20033;-90
2021/11/11 11:50:25;;;;;;;5.55;3.70;;;;;;;-145.06;100.00;60892.56;4877256;28;20037;-89
2021/11/11 11:53:08;;;;;;;6.82;3.58;;;;;;;13.27;100.00;60892.56;4875006;28;20020;-90
2021/11/11 11:56:04;;;;;;;5.50;3.53;;;;;;;-145.06;100.00;60892.56;4896163;28;20029;-89
2021/11/11 11:58:56;;;;;;;6.40;3.50;;;;;;;-145.06;100.00;60892.56;4891421;28;20024;-89
2021/11/11 12:01:56;;;;;;;5.85;3.55;;;;;;;-145.06;100.00;60892.56;4877390;28;20120;-88
2021/11/11 12:04:49;;;;;;;5.53;3.40;;;;;;;-145.06;100.00;60892.56;4871776;28;20025;-90
2021/11/11 12:07:38;;;;;;;6.68;3.40;;;;;;;-145.06;100.00;60892.56;4876751;28;20052;-89
2021/11/11 12:16:37;;;;;;;6.22;4.05;;;;;;;-145.06;100.00;60892.56;4874661;28;20024;-90
2021/11/11 12:40:19;;;;;;;7.57;5.30;;;;;;;-145.06;100.00;60892.56;4876999;28;20029;-89
2021/11/11 12:43:13;;;;;;;8.13;5.10;;;;;;;-145.06;100.00;60892.56;4876791;28;20605;-90
2021/11/11 12:45:52;;;;;;;7.20;4.97;;;;;;;-145.06;100.00;60892.56;4872843;28;20029;-89
2021/11/11 12:48:32;;;;;;;8.27;5.07;;;;;;;-145.06;100.00;60892.56;4868875;28;20053;-90
2021/11/11 12:51:11;;;;;;;8.82;4.97;;;;;;;-145.06;100.00;60892.56;4877975;28;20361;-90
2021/11/11 12:53:52;;;;;;;;;;;;;;;-145.06;100.00;60892.56;4875538;28;20036;-90
2021/11/11 12:56:34;;;;;;;7.13;4.40;;;;;;;-145.06;100.00;60892.56;4875602;28;20003;-89
2021/11/11 12:59:13;;;;;;;8.25;4.55;;;;;;;-145.06;100.00;60892.56;4867306;28;20112;-89
2021/11/11 13:01:54;;;;;;;;;;;;;;;-145.06;100.00;60892.56;4865270;28;20487;-89
2021/11/11 13:04:53;;;;;;;6.10;3.63;;;;;;;13.23;100.00;60892.56;4864114;28;19913;-90
2021/11/11 13:07:33;;;;;;;6.20;4.10;;;;;;;15.88;100.00;60892.56;4861931;28;20029;-90
2021/11/11 13:10:18;;;;;;;;;;;;;;;13.10;100.00;60892.56;4869276;28;20053;-90
2021/11/11 13:13:09;;;;;;;6.70;3.88;;;;;;;13.05;100.00;60892.56;4875377;28;20259;-89
2021/11/11 13:15:48;;;;;;;5.65;3.20;;;;;;;13.00;100.00;60892.56;4874022;28;20033;-89
2021/11/11 13:18:47;;;;;;;6.60;3.63;;;;;;;-145.06;100.00;60892.56;4871217;28;20040;-89
2021/11/11 16:00:14;;;;;;;;;;;;;;;-145.06;100.00;60892.56;4882208;28;20045;-91
2021/11/11 16:20:43;;;;;;;5.13;3.88;;;;;;;-145.06;100.00;60892.56;4875942;28;20467;-90